createdAt,value
2019-03-24T00:01:41.527Z,42.73
2019-03-24T00:04:13.379Z,45.37
2019-03-24T00:06:45.025Z,48.90
2019-03-24T00:09:16.824Z,47.53
2019-03-24T00:11:48.844Z,41.73
2019-03-24T00:14:20.574Z,42.53
2019-03-24T00:16:52.666Z,35.03
2019-03-24T00:19:24.630Z,39.97
2019-03-24T00:21:56.206Z,38.80
2019-03-24T00:24:27.945Z,33.73
2019-03-24T00:26:59.553Z,39.17
2019-03-24T00:29:31.399Z,39.73
2019-03-24T00:32:03.785Z,47.67
2019-03-24T00:34:35.687Z,41.20
2019-03-24T00:37:07.365Z,41.93
2019-03-24T00:39:39.035Z,39.90
2019-03-24T00:42:11.134Z,43.70
2019-03-24T00:44:42.884Z,39.07
2019-03-24T00:47:14.532Z,41.13
2019-03-24T00:49:46.946Z,38.67
2019-03-24T00:52:18.703Z,36.77
2019-03-24T00:54:50.504Z,35.77
2019-03-24T00:57:22.633Z,35.93
2019-03-24T00:59:55.771Z,35.80
2019-03-24T01:02:27.894Z,36.10
2019-03-24T01:04:59.824Z,30.60
2019-03-24T01:07:31.484Z,37.40
2019-03-24T01:10:05.149Z,37.17
2019-03-24T01:12:37.243Z,35.23
2019-03-24T01:15:09.265Z,30.53
2019-03-24T01:17:41.043Z,33.37
2019-03-24T01:20:12.823Z,32.00
2019-03-24T01:22:45.053Z,33.23
2019-03-24T01:25:16.943Z,34.37
2019-03-24T01:27:48.856Z,28.67
2019-03-24T01:30:20.784Z,27.30
2019-03-24T01:32:52.954Z,25.17
2019-03-24T01:35:24.626Z,30.23
2019-03-24T01:37:56.315Z,26.93
2019-03-24T01:40:28.393Z,30.70
2019-03-24T01:43:00.384Z,26.47
2019-03-24T01:45:34.464Z,34.07
2019-03-24T01:48:06.126Z,30.87
2019-03-24T01:50:37.964Z,25.10
2019-03-24T01:53:09.753Z,27.20
2019-03-24T01:55:41.583Z,25.80
2019-03-24T01:58:13.323Z,30.50
2019-03-24T02:00:45.764Z,27.00
2019-03-24T02:03:18.184Z,27.60
2019-03-24T02:05:50.343Z,24.67
2019-03-24T02:08:22.083Z,27.43
2019-03-24T02:10:54.003Z,29.50
2019-03-24T02:13:25.773Z,32.87
2019-03-24T02:15:57.773Z,32.60
2019-03-24T02:18:29.448Z,28.17
2019-03-24T02:21:01.133Z,31.13
2019-03-24T02:23:33.064Z,30.77
2019-03-24T02:26:05.304Z,30.30
2019-03-24T02:28:37.064Z,30.83
2019-03-24T02:31:08.985Z,30.10
2019-03-24T02:33:41.149Z,28.83
2019-03-24T02:36:13.108Z,32.47
2019-03-24T02:38:45.574Z,28.73
2019-03-24T02:41:17.664Z,33.23
2019-03-24T02:43:49.284Z,30.80
2019-03-24T02:46:24.627Z,30.70
2019-03-24T02:48:54.746Z,30.60
2019-03-24T02:51:26.867Z,32.70
2019-03-24T02:53:58.614Z,29.37
2019-03-24T02:56:30.354Z,27.50
2019-03-24T02:59:02.444Z,33.80
2019-03-24T03:01:34.504Z,37.87
2019-03-24T03:04:06.924Z,35.20
2019-03-24T03:06:38.822Z,32.10
2019-03-24T03:09:10.863Z,37.73
2019-03-24T03:11:42.710Z,40.70
2019-03-24T03:14:14.462Z,36.57
2019-03-24T03:16:47.352Z,32.80
2019-03-24T03:19:19.185Z,37.73
2019-03-24T03:21:50.863Z,38.73
2019-03-24T03:24:22.470Z,36.97
2019-03-24T03:26:54.386Z,35.70
2019-03-24T03:29:26.588Z,47.10
2019-03-24T03:31:58.478Z,47.13
2019-03-24T03:34:30.605Z,48.60
2019-03-24T03:37:02.485Z,52.87
2019-03-24T03:39:34.476Z,46.53
2019-03-24T03:42:06.214Z,48.93
2019-03-24T03:44:37.824Z,46.63
2019-03-24T03:47:09.705Z,48.30
2019-03-24T03:49:41.555Z,55.00
2019-03-24T03:52:13.255Z,51.90
2019-03-24T03:54:45.064Z,55.57
2019-03-24T03:57:16.827Z,50.80
2019-03-24T03:59:48.546Z,65.07
2019-03-24T04:02:20.925Z,55.20
2019-03-24T04:04:52.985Z,62.10
2019-03-24T04:07:24.865Z,57.70
2019-03-24T04:09:56.892Z,60.17
2019-03-24T04:12:28.994Z,52.07
2019-03-24T04:15:00.803Z,58.00
2019-03-24T04:17:32.484Z,58.53
2019-03-24T04:20:04.467Z,61.57
2019-03-24T04:22:36.670Z,66.13
2019-03-24T04:25:09.695Z,60.73
2019-03-24T04:27:41.464Z,62.73
2019-03-24T04:30:14.385Z,66.40
2019-03-24T04:32:46.304Z,66.93
2019-03-24T04:35:18.745Z,62.53
2019-03-24T04:37:50.524Z,62.30
2019-03-24T04:40:22.486Z,61.53
2019-03-24T04:42:54.664Z,55.70
2019-03-24T04:45:26.633Z,63.40
2019-03-24T04:47:58.374Z,62.70
2019-03-24T04:50:29.984Z,52.50
2019-03-24T04:53:01.784Z,53.63
2019-03-24T04:55:33.424Z,53.27
2019-03-24T04:58:05.304Z,52.03
2019-03-24T05:00:37.924Z,56.47
2019-03-24T05:03:10.312Z,47.13
2019-03-24T05:05:42.724Z,58.13
2019-03-24T05:08:14.704Z,50.60
2019-03-24T05:10:46.414Z,55.07
2019-03-24T05:13:18.194Z,49.53
2019-03-24T05:15:49.884Z,47.33
2019-03-24T05:18:21.663Z,49.17
2019-03-24T05:20:53.334Z,51.70
2019-03-24T05:23:26.104Z,50.77
2019-03-24T05:25:57.744Z,46.40
2019-03-24T05:28:29.867Z,47.03
2019-03-24T05:31:01.545Z,49.43
2019-03-24T05:33:33.484Z,42.43
2019-03-24T05:36:05.684Z,44.07
2019-03-24T05:38:37.785Z,45.87
2019-03-24T05:41:11.845Z,48.77
2019-03-24T05:43:43.204Z,38.60
2019-03-24T05:46:14.884Z,46.30
2019-03-24T05:48:47.014Z,37.63
2019-03-24T05:51:18.804Z,44.50
2019-03-24T05:53:50.585Z,41.27
2019-03-24T05:56:22.584Z,35.17
2019-03-24T05:58:54.625Z,34.60
2019-03-24T06:01:26.677Z,40.60
2019-03-24T06:03:58.684Z,38.00
2019-03-24T06:06:30.934Z,33.93
2019-03-24T06:09:02.714Z,36.30
2019-03-24T06:11:34.584Z,35.13
2019-03-24T06:14:06.404Z,40.80
2019-03-24T06:16:38.544Z,29.23
2019-03-24T06:19:10.222Z,34.33
2019-03-24T06:21:42.004Z,32.53
2019-03-24T06:24:14.286Z,31.53
2019-03-24T06:26:46.004Z,24.97
2019-03-24T06:29:17.992Z,26.10
2019-03-24T06:31:49.844Z,25.97
2019-03-24T06:34:21.584Z,28.17
2019-03-24T06:36:54.065Z,27.57
2019-03-24T06:39:26.215Z,30.40
2019-03-24T06:41:57.822Z,26.63
2019-03-24T06:44:30.504Z,26.43
2019-03-24T06:47:02.087Z,27.83
2019-03-24T06:49:33.974Z,27.40
2019-03-24T06:52:05.664Z,29.60
2019-03-24T06:54:37.424Z,32.10
2019-03-24T06:57:09.245Z,25.27
2019-03-24T06:59:41.384Z,30.67
2019-03-24T07:02:13.264Z,29.13
2019-03-24T07:04:46.475Z,33.17
2019-03-24T07:07:18.585Z,31.20
2019-03-24T07:09:50.434Z,30.17
2019-03-24T07:12:22.315Z,25.70
2019-03-24T07:14:54.070Z,27.57
2019-03-24T07:17:25.864Z,31.03
2019-03-24T07:19:57.628Z,29.17
2019-03-24T07:22:29.684Z,23.73
2019-03-24T07:25:01.374Z,31.33
2019-03-24T07:27:32.967Z,30.97
2019-03-24T07:30:06.704Z,29.07
2019-03-24T07:32:38.445Z,25.93
2019-03-24T07:35:10.120Z,20.60
2019-03-24T07:37:42.636Z,25.20
2019-03-24T07:40:14.536Z,26.57
2019-03-24T07:42:46.262Z,48.33
2019-03-24T07:45:18.202Z,32.37
2019-03-24T07:47:50.573Z,23.47
2019-03-24T07:50:22.815Z,31.23
2019-03-24T07:52:54.552Z,23.53
2019-03-24T07:55:26.304Z,25.50
2019-03-24T07:57:59.344Z,25.77
2019-03-24T08:00:31.924Z,21.20
2019-03-24T08:03:03.584Z,19.87
2019-03-24T08:05:36.765Z,18.97
2019-03-24T08:08:08.894Z,37.33
2019-03-24T08:10:40.584Z,23.40
2019-03-24T08:13:12.354Z,17.57
2019-03-24T08:15:44.176Z,21.47
2019-03-24T08:21:01.885Z,19.48
2019-03-24T08:23:33.554Z,17.00
2019-03-24T08:26:05.245Z,20.57
2019-03-24T08:28:36.904Z,18.80
2019-03-24T08:31:08.773Z,21.60
2019-03-24T08:33:40.434Z,19.77
2019-03-24T08:36:12.132Z,20.40
2019-03-24T08:38:44.277Z,28.30
2019-03-24T08:41:15.904Z,18.07
2019-03-24T08:43:47.568Z,19.03
2019-03-24T08:46:19.284Z,16.90
2019-03-24T08:48:51.305Z,16.57
2019-03-24T08:51:22.982Z,23.07
2019-03-24T08:53:54.590Z,22.37
2019-03-24T08:56:26.995Z,17.23
2019-03-24T08:58:59.226Z,22.33
2019-03-24T09:01:31.140Z,17.97
2019-03-24T09:04:03.540Z,15.43
2019-03-24T09:06:41.164Z,15.73
2019-03-24T09:09:13.589Z,17.97
2019-03-24T09:11:45.276Z,18.10
2019-03-24T09:14:16.979Z,21.20
2019-03-24T09:16:48.744Z,44.23
2019-03-24T09:19:20.795Z,29.60
2019-03-24T09:21:52.474Z,21.83
2019-03-24T09:24:24.169Z,17.73
2019-03-24T09:26:56.095Z,16.47
2019-03-24T09:29:27.675Z,19.93
2019-03-24T09:31:59.581Z,17.30
2019-03-24T09:34:31.250Z,17.37
2019-03-24T09:37:02.989Z,14.07
2019-03-24T09:39:34.967Z,14.73
2019-03-24T09:42:06.754Z,11.57
2019-03-24T09:44:38.382Z,12.07
2019-03-24T09:47:10.210Z,13.40
2019-03-24T09:49:41.794Z,11.20
2019-03-24T09:52:13.621Z,9.23
2019-03-24T09:54:45.324Z,16.60
2019-03-24T09:57:17.294Z,10.70
2019-03-24T09:59:49.589Z,11.90
2019-03-24T10:02:21.445Z,10.93
2019-03-24T10:04:54.859Z,11.03
2019-03-24T10:07:31.514Z,13.33
2019-03-24T10:10:04.796Z,15.50
2019-03-24T10:12:36.544Z,11.73
2019-03-24T10:15:08.195Z,11.90
2019-03-24T10:17:41.225Z,13.90
2019-03-24T10:20:13.096Z,13.57
2019-03-24T10:22:44.821Z,11.63
2019-03-24T10:25:16.439Z,11.07
2019-03-24T10:27:48.558Z,14.43
2019-03-24T10:30:20.294Z,10.07
2019-03-24T10:32:52.114Z,10.00
2019-03-24T10:35:23.684Z,9.50
2019-03-24T10:37:55.390Z,10.60
2019-03-24T10:40:28.841Z,9.87
2019-03-24T10:43:00.855Z,13.47
2019-03-24T10:45:32.806Z,12.47
2019-03-24T10:48:04.465Z,28.20
2019-03-24T10:50:36.287Z,9.00
2019-03-24T10:53:08.102Z,27.47
2019-03-24T10:55:40.544Z,14.43
2019-03-24T10:58:12.415Z,14.17
2019-03-24T11:00:44.079Z,9.33
2019-03-24T11:54:45.751Z,10.60
2019-03-24T11:57:18.047Z,12.27
2019-03-24T11:59:50.016Z,12.67
2019-03-24T12:02:22.086Z,16.07
2019-03-24T12:04:53.986Z,12.10
2019-03-24T12:07:27.107Z,9.03
2019-03-24T12:09:58.950Z,11.40
2019-03-24T12:12:34.496Z,11.47
2019-03-24T12:15:06.247Z,12.23
2019-03-24T12:17:38.182Z,16.23
2019-03-24T12:20:09.986Z,10.53
2019-03-24T12:22:42.016Z,10.97
2019-03-24T12:25:14.576Z,13.90
2019-03-24T12:27:46.505Z,12.07
2019-03-24T12:30:18.426Z,10.83
2019-03-24T12:32:50.306Z,10.73
2019-03-24T12:35:22.206Z,12.73
2019-03-24T12:37:54.157Z,9.73
2019-03-24T12:40:26.075Z,11.20
2019-03-24T12:42:58.009Z,11.80
2019-03-24T12:45:29.909Z,12.40
2019-03-24T12:48:01.857Z,10.87
2019-03-24T12:50:33.837Z,14.57
2019-03-24T12:53:07.237Z,9.27
2019-03-24T12:55:39.646Z,11.23
2019-03-24T12:58:11.527Z,22.40
2019-03-24T13:00:43.383Z,17.09
2019-03-24T13:03:15.321Z,10.90
2019-03-24T13:05:47.228Z,15.87
2019-03-24T13:08:19.172Z,13.63
2019-03-24T13:10:51.279Z,14.07
2019-03-24T13:13:23.286Z,18.77
2019-03-24T13:15:55.536Z,14.83
2019-03-24T13:18:27.448Z,18.53
2019-03-24T13:20:59.326Z,17.20
2019-03-24T13:23:31.344Z,11.00
2019-03-24T13:26:03.527Z,7.10
2019-03-24T13:28:35.456Z,14.87
2019-03-24T13:31:07.316Z,14.10
2019-03-24T13:33:39.257Z,14.47
2019-03-24T13:36:12.221Z,10.33
2019-03-24T13:38:44.107Z,8.47
2019-03-24T13:41:15.986Z,14.13
2019-03-24T13:43:47.936Z,8.20
2019-03-24T13:46:19.736Z,11.10
2019-03-24T13:48:52.907Z,15.23
2019-03-24T13:51:24.746Z,16.90
2019-03-24T13:53:57.956Z,10.83
2019-03-24T13:56:30.386Z,12.97
2019-03-24T13:59:02.261Z,14.33
2019-03-24T14:01:34.076Z,14.93
2019-03-24T14:04:06.066Z,9.40
2019-03-24T14:06:37.876Z,8.63
2019-03-24T14:09:16.336Z,11.80
2019-03-24T14:11:48.906Z,9.60
2019-03-24T14:14:20.860Z,15.40
2019-03-24T14:16:53.816Z,13.43
2019-03-24T14:19:25.876Z,10.43
2019-03-24T14:21:57.845Z,8.27
2019-03-24T14:24:29.766Z,9.07
2019-03-24T14:27:01.735Z,6.97
2019-03-24T14:29:33.597Z,13.37
2019-03-24T14:32:05.427Z,13.73
2019-03-24T14:34:37.257Z,10.43
2019-03-24T14:37:11.661Z,12.33
2019-03-24T14:39:43.396Z,13.50
2019-03-24T14:42:16.225Z,9.93
2019-03-24T14:44:48.215Z,11.47
2019-03-24T14:47:20.297Z,11.77
2019-03-24T14:49:52.259Z,14.87
2019-03-24T14:52:24.125Z,30.07
2019-03-24T14:54:55.976Z,10.33
2019-03-24T14:57:27.726Z,10.97
2019-03-24T15:00:00.110Z,14.83
2019-03-24T15:02:32.026Z,10.87
2019-03-24T15:05:05.603Z,7.67
2019-03-24T15:07:43.626Z,11.13
2019-03-24T15:10:18.427Z,8.90
2019-03-24T15:12:50.886Z,9.13
2019-03-24T15:15:22.846Z,9.33
2019-03-24T15:17:54.907Z,13.00
2019-03-24T15:20:26.855Z,9.13
2019-03-24T15:22:58.939Z,10.23
2019-03-24T15:25:31.159Z,6.67
2019-03-24T15:28:02.996Z,12.80
2019-03-24T15:30:35.185Z,11.30
2019-03-24T15:33:07.056Z,9.30
2019-03-24T15:35:40.007Z,10.23
2019-03-24T15:38:11.956Z,12.43
2019-03-24T15:40:44.974Z,13.37
2019-03-24T15:43:18.545Z,10.53
2019-03-24T15:45:50.496Z,13.87
2019-03-24T15:48:22.458Z,21.07
2019-03-24T15:50:54.576Z,12.07
2019-03-24T15:53:26.546Z,13.97
2019-03-24T15:55:58.376Z,10.67
2019-03-24T15:58:30.330Z,12.03
2019-03-24T16:01:02.378Z,12.00
2019-03-24T16:03:34.193Z,9.73
2019-03-24T16:06:07.294Z,10.77
2019-03-24T16:08:39.107Z,12.40
2019-03-24T16:11:17.221Z,10.90
2019-03-24T16:13:50.249Z,12.40
2019-03-24T16:16:23.473Z,10.50
2019-03-24T16:18:55.396Z,12.83
2019-03-24T16:21:30.140Z,13.20
2019-03-24T16:24:01.391Z,14.33
2019-03-24T16:26:33.304Z,10.93
2019-03-24T16:29:05.021Z,10.53
2019-03-24T16:31:37.271Z,12.93
2019-03-24T16:34:09.100Z,14.30
2019-03-24T16:36:41.399Z,14.17
2019-03-24T16:39:13.236Z,19.03
2019-03-24T16:41:45.386Z,15.63
2019-03-24T16:44:17.679Z,14.97
2019-03-24T16:46:50.229Z,15.33
2019-03-24T16:49:22.751Z,11.23
2019-03-24T16:51:55.048Z,14.70
2019-03-24T16:54:27.063Z,16.73
2019-03-24T16:56:59.369Z,26.90
2019-03-24T16:59:31.348Z,19.47
2019-03-24T17:02:03.605Z,23.63
2019-03-24T17:04:35.356Z,26.67
2019-03-24T17:07:07.456Z,25.87
2019-03-24T17:09:39.537Z,27.27
2019-03-24T17:12:12.966Z,22.87
2019-03-24T17:14:45.570Z,27.43
2019-03-24T17:17:17.484Z,47.47
2019-03-24T17:19:49.336Z,55.33
2019-03-24T17:22:21.198Z,33.30
2019-03-24T17:24:53.206Z,34.73
2019-03-24T17:27:25.325Z,38.83
2019-03-24T17:29:57.407Z,39.70
2019-03-24T17:32:29.676Z,28.93
2019-03-24T17:35:01.793Z,25.80
2019-03-24T17:37:33.905Z,27.67
2019-03-24T17:40:06.757Z,25.27
2019-03-24T17:42:38.901Z,24.43
2019-03-24T17:45:11.290Z,22.60
2019-03-24T17:47:43.315Z,27.00
2019-03-24T17:50:15.285Z,21.37
2019-03-24T17:52:47.156Z,23.17
2019-03-24T17:55:27.142Z,24.33
2019-03-24T17:57:53.004Z,24.97
2019-03-24T18:00:34.491Z,32.47
2019-03-24T18:03:07.056Z,40.87
2019-03-24T18:05:39.403Z,42.77
2019-03-24T18:08:11.376Z,46.27
2019-03-24T18:10:43.536Z,40.07
2019-03-24T18:13:22.217Z,38.83
2019-03-24T18:15:54.996Z,39.47
2019-03-24T18:18:27.116Z,40.97
2019-03-24T18:21:07.476Z,40.91
2019-03-24T18:23:39.341Z,33.60
2019-03-24T18:26:11.315Z,36.30
2019-03-24T18:28:43.516Z,36.80
2019-03-24T18:31:15.795Z,38.10
2019-03-24T18:33:47.726Z,31.37
2019-03-24T18:36:19.886Z,41.00
2019-03-24T18:38:51.846Z,47.83
2019-03-24T18:41:23.834Z,56.30
2019-03-24T18:43:56.166Z,48.50
2019-03-24T18:46:28.636Z,46.83
2019-03-24T18:49:00.517Z,41.47
2019-03-24T18:51:32.446Z,45.57
2019-03-24T18:54:04.469Z,36.27
2019-03-24T18:56:36.276Z,42.47
2019-03-24T18:59:08.315Z,36.47
2019-03-24T19:01:40.169Z,36.17
2019-03-24T19:04:12.207Z,32.73
2019-03-24T19:06:44.706Z,36.83
2019-03-24T19:09:17.776Z,32.77
2019-03-24T19:11:51.679Z,34.53
2019-03-24T19:14:24.218Z,30.07
2019-03-24T19:16:56.392Z,35.03
2019-03-24T19:19:29.356Z,32.00
2019-03-24T19:22:01.776Z,37.17
2019-03-24T19:24:34.986Z,43.27
2019-03-24T19:27:06.888Z,41.13
2019-03-24T19:29:38.854Z,36.83
2019-03-24T19:32:11.065Z,38.03
2019-03-24T19:34:43.036Z,41.10
2019-03-24T19:37:15.034Z,44.63
2019-03-24T19:39:46.887Z,43.60
2019-03-24T19:42:19.429Z,46.93
2019-03-24T19:44:51.426Z,46.73
2019-03-24T19:47:23.775Z,47.17
2019-03-24T19:49:55.776Z,73.97
2019-03-24T19:52:27.759Z,76.10
2019-03-24T19:54:59.675Z,62.53
2019-03-24T19:57:32.473Z,60.63
2019-03-24T20:00:05.816Z,58.27
2019-03-24T20:02:39.438Z,60.93
2019-03-24T20:05:11.457Z,59.90
2019-03-24T20:07:48.219Z,62.90
2019-03-24T20:10:18.069Z,57.37
2019-03-24T20:12:49.944Z,57.63
2019-03-24T20:15:22.267Z,62.07
2019-03-24T20:17:54.577Z,55.70
2019-03-24T20:20:26.486Z,55.37
2019-03-24T20:22:59.048Z,55.13
2019-03-24T20:25:30.944Z,47.13
2019-03-24T20:28:03.011Z,41.90
2019-03-24T20:30:34.886Z,43.70
2019-03-24T20:33:06.624Z,51.40
2019-03-24T20:35:39.616Z,44.40
2019-03-24T20:38:11.485Z,49.77
2019-03-24T20:40:43.500Z,46.90
2019-03-24T20:43:15.374Z,42.23
2019-03-24T20:45:47.336Z,42.77
2019-03-24T20:48:19.675Z,45.00
2019-03-24T20:50:51.676Z,39.97
2019-03-24T20:53:23.674Z,41.87
2019-03-24T20:55:55.725Z,50.10
2019-03-24T20:58:27.606Z,64.13
2019-03-24T21:00:59.765Z,62.87
2019-03-24T21:03:31.666Z,74.27
2019-03-24T21:06:03.584Z,74.60
2019-03-24T21:08:35.453Z,78.13
2019-03-24T21:11:07.426Z,87.40
2019-03-24T21:13:39.506Z,77.90
2019-03-24T21:16:15.097Z,111.13
2019-03-24T21:18:47.475Z,214.83
2019-03-24T21:21:19.469Z,188.10
2019-03-24T21:23:51.706Z,203.53
2019-03-24T21:26:23.526Z,206.43
2019-03-24T21:28:55.435Z,184.97
2019-03-24T21:31:27.366Z,181.77
2019-03-24T21:33:59.176Z,183.13
2019-03-24T21:36:31.225Z,192.60
2019-03-24T21:39:06.359Z,192.53
2019-03-24T21:41:38.346Z,186.03
2019-03-24T21:44:10.356Z,167.13
2019-03-24T21:46:42.239Z,176.93
2019-03-24T21:49:14.782Z,171.40
2019-03-24T21:51:46.846Z,154.77
2019-03-24T21:54:18.787Z,154.60
2019-03-24T21:56:51.116Z,153.87
2019-03-24T21:59:23.405Z,158.33
2019-03-24T22:01:55.815Z,164.37
2019-03-24T22:04:27.706Z,173.43
2019-03-24T22:06:59.986Z,189.97
2019-03-24T22:09:32.005Z,215.07
2019-03-24T22:12:04.456Z,192.77
2019-03-24T22:14:37.801Z,198.03
2019-03-24T22:17:16.156Z,209.93
2019-03-24T22:19:48.546Z,205.27
2019-03-24T22:22:20.696Z,205.10
2019-03-24T22:24:52.555Z,225.93
2019-03-24T22:27:24.599Z,189.43
2019-03-24T22:29:56.605Z,156.63
2019-03-24T22:32:28.476Z,147.50
2019-03-24T22:35:00.375Z,149.30
2019-03-24T22:37:32.936Z,129.60
2019-03-24T22:40:06.857Z,132.87
2019-03-24T22:42:39.904Z,145.30
2019-03-24T22:45:11.844Z,146.77
2019-03-24T22:47:44.017Z,148.53
2019-03-24T22:50:17.290Z,151.63
2019-03-24T22:52:49.267Z,166.97
2019-03-24T22:55:21.716Z,177.53
2019-03-24T22:57:53.617Z,170.83
2019-03-24T23:00:42.786Z,167.40
2019-03-24T23:03:16.735Z,200.40
2019-03-24T23:05:48.549Z,186.07
2019-03-24T23:08:20.706Z,210.70
2019-03-24T23:10:52.556Z,221.23
2019-03-24T23:13:24.645Z,219.93
2019-03-24T23:15:56.424Z,228.57
2019-03-24T23:18:35.085Z,247.87
2019-03-24T23:21:07.361Z,252.73
2019-03-24T23:23:39.236Z,242.87
2019-03-24T23:26:11.264Z,230.00
2019-03-24T23:28:43.495Z,241.17
2019-03-24T23:31:15.326Z,228.40
2019-03-24T23:33:47.176Z,243.43
2019-03-24T23:36:18.946Z,236.83
2019-03-24T23:38:50.777Z,232.37
2019-03-24T23:41:22.708Z,244.47
2019-03-24T23:43:54.666Z,242.17
2019-03-24T23:46:26.716Z,255.50
2019-03-24T23:48:59.152Z,265.60
2019-03-24T23:51:31.924Z,251.23
2019-03-24T23:54:03.831Z,247.37
2019-03-24T23:56:35.586Z,241.77
2019-03-24T23:59:07.465Z,248.30
